Umatilla, Oregon
Current Conditions -  °F | °C
As of 2:53 AM on Friday 24 Oct 2014 (Local Time) from KHRI Reporting Station
Clear Clear  
Wind Chill: 45°   Ceiling: Unl
Heat Index: 48°   Visibility: 10mi
Dew Point: 44°   Wind: 6mph
Humidity: 86%   Direction: 120°ESE
Pressure: 30.03"   Gusts: NA
Location:  45.92°N, 119.34°W
Report Text: KHRI 240953Z AUTO 12005KT 10SM CLR 09/07 A3003 RMK AO2 SLP170 T00890067
Loading
Personal Weather Stations






























Interactive Weather Map
Tropical Storm Tracking
New forecast layout! Learn more

10-Day Weather Forecast

Advertisements
Track Severe Weather on mobile